Weather at RAF Ayios Nikolaos Air Base [CLOSED]

Public forecast

Using degrees Celsius for public forecast. Weather courtesy of forecast.io.

Closest aviation weather report (METAR) to RAF Ayios Nikolaos Air Base

Closest report is Larnaca International Airport, 18.4 nm (34.1 km) SW.

2022/12/05 15:30 (retrieved 15 minutes ago)

LCLK 051530Z 20003KT 9999 SCT030 SCT045 19/12 Q1018 NOSIG

Closest aviation forecast (TAF) to RAF Ayios Nikolaos Air Base

Closest forecast is Larnaca International Airport, 18.4 nm (34.1 km) SW.

2022/12/05 12:30 (retrieved 3 hours ago)

TAF LCLK 051130Z 0512/0612 19010KT 9999 FEW025 BECMG 0515/0518 31006KT BECMG 0609/0612 19010KT